createdAt,value
2018-04-26T00:01:41.606Z,6.66
2018-04-26T00:04:07.404Z,6.71
2018-04-26T00:06:33.153Z,6.67
2018-04-26T00:08:58.890Z,6.68
2018-04-26T00:11:24.645Z,6.65
2018-04-26T00:13:50.392Z,6.56
2018-04-26T00:16:16.152Z,6.61
2018-04-26T00:18:41.889Z,6.56
2018-04-26T00:21:07.627Z,6.64
2018-04-26T00:23:33.351Z,6.51
2018-04-26T00:25:59.102Z,6.50
2018-04-26T00:28:24.850Z,6.42
2018-04-26T00:30:50.600Z,6.43
2018-04-26T00:33:16.335Z,6.41
2018-04-26T00:35:42.097Z,6.53
2018-04-26T00:38:07.849Z,6.53
2018-04-26T00:40:33.610Z,6.44
2018-04-26T00:42:59.344Z,6.45
2018-04-26T00:45:25.109Z,6.42
2018-04-26T00:47:50.853Z,6.41
2018-04-26T00:50:16.597Z,6.32
2018-04-26T00:52:42.339Z,6.41
2018-04-26T00:55:08.081Z,6.28
2018-04-26T00:57:33.833Z,6.28
2018-04-26T00:59:59.558Z,6.30
2018-04-26T01:02:25.329Z,6.33
2018-04-26T01:04:51.071Z,6.29
2018-04-26T01:07:16.836Z,6.30
2018-04-26T01:09:42.585Z,6.29
2018-04-26T01:12:08.337Z,6.29
2018-04-26T01:14:34.073Z,6.29
2018-04-26T01:16:59.814Z,6.27
2018-04-26T01:19:25.569Z,6.30
2018-04-26T01:21:51.286Z,6.27
2018-04-26T01:24:17.016Z,6.23
2018-04-26T01:26:42.811Z,6.25
2018-04-26T01:29:08.499Z,6.23
2018-04-26T01:31:34.230Z,6.23
2018-04-26T01:33:59.970Z,6.25
2018-04-26T01:36:38.145Z,6.22
2018-04-26T01:39:03.880Z,6.18
2018-04-26T01:41:29.627Z,6.18
2018-04-26T01:43:55.369Z,6.19
2018-04-26T01:46:21.129Z,6.19
2018-04-26T01:48:46.880Z,6.24
2018-04-26T01:51:12.624Z,6.28
2018-04-26T01:53:38.385Z,6.25
2018-04-26T01:56:04.145Z,6.29
2018-04-26T01:58:29.872Z,6.34
2018-04-26T02:00:55.609Z,6.35
2018-04-26T02:03:21.344Z,6.36
2018-04-26T02:05:47.072Z,6.33
2018-04-26T02:08:12.816Z,6.30
2018-04-26T02:10:38.589Z,6.27
2018-04-26T02:13:04.336Z,6.29
2018-04-26T02:15:30.068Z,6.29
2018-04-26T02:17:55.809Z,6.29
2018-04-26T02:20:21.558Z,6.23
2018-04-26T02:22:47.330Z,6.17
2018-04-26T02:25:13.068Z,6.17
2018-04-26T02:27:38.803Z,6.15
2018-04-26T02:30:04.536Z,6.17
2018-04-26T02:32:30.255Z,6.15
2018-04-26T02:34:56.007Z,6.19
2018-04-26T02:37:21.765Z,6.20
2018-04-26T02:39:47.494Z,6.18
2018-04-26T02:42:13.261Z,6.17
2018-04-26T02:44:38.997Z,6.13
2018-04-26T02:47:04.753Z,6.14
2018-04-26T02:49:30.500Z,6.17
2018-04-26T02:51:56.243Z,6.19
2018-04-26T02:54:21.993Z,6.12
2018-04-26T02:56:47.737Z,6.10
2018-04-26T02:59:13.477Z,6.14
2018-04-26T03:01:39.232Z,6.15
2018-04-26T03:04:04.973Z,6.17
2018-04-26T03:06:30.713Z,6.18
2018-04-26T03:08:56.456Z,6.21
2018-04-26T03:11:22.196Z,6.16
2018-04-26T03:13:47.945Z,6.19
2018-04-26T03:16:13.668Z,6.19
2018-04-26T03:18:39.408Z,6.25
2018-04-26T03:21:05.190Z,6.35
2018-04-26T03:23:30.882Z,6.42
2018-04-26T03:25:56.608Z,6.48
2018-04-26T03:28:22.343Z,6.51
2018-04-26T03:30:48.072Z,6.52
2018-04-26T03:33:13.812Z,6.60
2018-04-26T03:35:39.535Z,6.61
2018-04-26T03:38:08.387Z,6.69
2018-04-26T03:40:34.121Z,6.69
2018-04-26T03:42:59.864Z,6.69
2018-04-26T03:45:25.584Z,6.70
2018-04-26T03:47:51.321Z,6.70
2018-04-26T03:50:17.059Z,6.70
2018-04-26T03:52:42.797Z,6.69
2018-04-26T03:55:08.529Z,6.70
2018-04-26T03:57:34.261Z,6.64
2018-04-26T04:00:12.436Z,6.59
2018-04-26T04:02:50.629Z,6.61
2018-04-26T04:05:28.809Z,6.61
2018-04-26T04:07:54.543Z,6.67
2018-04-26T04:10:20.260Z,6.66
2018-04-26T04:12:46.389Z,6.75
2018-04-26T04:15:12.121Z,6.78
2018-04-26T04:17:37.848Z,6.81
2018-04-26T04:20:03.571Z,6.85
2018-04-26T04:22:29.310Z,6.88
2018-04-26T04:24:55.036Z,6.79
2018-04-26T04:27:20.769Z,6.77
2018-04-26T04:29:46.501Z,6.81
2018-04-26T04:32:12.228Z,6.84
2018-04-26T04:34:37.958Z,6.88
2018-04-26T04:37:03.700Z,6.86
2018-04-26T04:39:29.438Z,6.91
2018-04-26T04:41:55.160Z,6.90
2018-04-26T04:44:20.893Z,6.91
2018-04-26T04:46:46.624Z,6.94
2018-04-26T04:49:12.365Z,6.96
2018-04-26T04:51:38.076Z,7.02
2018-04-26T04:54:03.835Z,7.06
2018-04-26T04:56:29.566Z,7.07
2018-04-26T04:58:55.304Z,7.10
2018-04-26T05:01:21.043Z,7.15
2018-04-26T05:03:46.777Z,7.18
2018-04-26T05:06:12.508Z,7.22
2018-04-26T05:08:38.255Z,7.20
2018-04-26T05:11:03.992Z,7.25
2018-04-26T05:13:29.738Z,7.29
2018-04-26T05:15:55.472Z,7.32
2018-04-26T05:18:21.242Z,7.38
2018-04-26T05:20:46.979Z,7.41
2018-04-26T05:23:12.730Z,7.45
2018-04-26T05:25:38.509Z,7.47
2018-04-26T05:28:04.207Z,7.48
2018-04-26T05:30:29.949Z,7.48
2018-04-26T05:32:55.677Z,7.51
2018-04-26T05:35:21.422Z,7.57
2018-04-26T05:37:47.159Z,7.56
2018-04-26T05:40:12.905Z,7.59
2018-04-26T05:42:38.632Z,7.61
2018-04-26T05:45:04.385Z,7.68
2018-04-26T05:47:30.116Z,7.72
2018-04-26T05:49:55.866Z,7.69
2018-04-26T05:52:21.608Z,7.73
2018-04-26T05:54:47.372Z,7.79
2018-04-26T05:57:13.112Z,7.99
2018-04-26T05:59:38.849Z,8.15
2018-04-26T06:02:04.592Z,8.27
2018-04-26T06:04:30.332Z,8.41
2018-04-26T06:06:56.061Z,8.54
2018-04-26T06:09:21.803Z,8.44
2018-04-26T06:11:47.544Z,8.41
2018-04-26T06:14:13.285Z,8.41
2018-04-26T06:16:39.023Z,8.37
2018-04-26T06:19:04.768Z,8.25
2018-04-26T06:21:30.512Z,8.15
2018-04-26T06:23:56.257Z,8.34
2018-04-26T06:26:21.989Z,8.46
2018-04-26T06:28:47.737Z,8.49
2018-04-26T06:31:13.464Z,8.58
2018-04-26T06:33:39.223Z,8.72
2018-04-26T06:36:04.974Z,8.79
2018-04-26T06:38:30.705Z,8.84
2018-04-26T06:40:56.437Z,8.90
2018-04-26T06:43:22.168Z,8.94
2018-04-26T06:45:47.908Z,8.93
2018-04-26T06:48:13.656Z,9.00
2018-04-26T06:50:39.383Z,8.89
2018-04-26T06:53:05.114Z,8.97
2018-04-26T06:55:30.877Z,9.00
2018-04-26T06:57:56.609Z,9.06
2018-04-26T07:00:22.413Z,9.17
2018-04-26T07:02:48.096Z,9.10
2018-04-26T07:05:13.837Z,8.96
2018-04-26T07:07:39.572Z,9.15
2018-04-26T07:10:05.320Z,9.36
2018-04-26T07:12:31.057Z,9.38
2018-04-26T07:14:56.791Z,9.12
2018-04-26T07:17:22.516Z,9.23
2018-04-26T07:19:48.240Z,9.28
2018-04-26T07:22:13.976Z,9.31
2018-04-26T07:24:39.701Z,9.33
2018-04-26T07:27:05.436Z,9.60
2018-04-26T07:29:31.167Z,9.50
2018-04-26T07:31:56.908Z,9.34
2018-04-26T07:34:22.653Z,9.39
2018-04-26T07:36:48.396Z,9.51
2018-04-26T07:39:14.132Z,9.84
2018-04-26T07:41:39.877Z,9.79
2018-04-26T07:44:05.613Z,9.64
2018-04-26T07:46:31.373Z,9.63
2018-04-26T07:48:57.120Z,9.64
2018-04-26T07:51:22.848Z,9.72
2018-04-26T07:53:48.584Z,9.81
2018-04-26T07:56:14.296Z,9.76
2018-04-26T07:58:40.025Z,9.93
2018-04-26T08:01:05.752Z,10.07
2018-04-26T08:03:31.481Z,10.06
2018-04-26T08:05:57.209Z,10.19
2018-04-26T08:08:22.941Z,10.30
2018-04-26T08:10:48.673Z,10.43
2018-04-26T08:13:14.418Z,10.35
2018-04-26T08:15:40.145Z,10.46
2018-04-26T08:18:05.885Z,10.22
2018-04-26T08:20:31.636Z,10.35
2018-04-26T08:22:57.365Z,10.61
2018-04-26T08:25:23.085Z,10.89
2018-04-26T08:27:48.824Z,11.13
2018-04-26T08:30:14.555Z,11.14
2018-04-26T08:32:40.301Z,11.39
2018-04-26T08:35:06.045Z,11.27
2018-04-26T08:37:31.793Z,10.65
2018-04-26T08:39:57.557Z,10.51
2018-04-26T08:42:23.280Z,10.36
2018-04-26T08:44:49.022Z,10.45
2018-04-26T08:47:14.731Z,10.38
2018-04-26T08:49:40.473Z,10.53
2018-04-26T08:52:06.189Z,10.84
2018-04-26T08:54:31.940Z,10.95
2018-04-26T08:56:57.689Z,11.27
2018-04-26T08:59:23.433Z,11.26
2018-04-26T09:01:49.161Z,11.35
2018-04-26T09:04:14.909Z,11.43
2018-04-26T09:06:40.701Z,12.01
2018-04-26T09:09:06.380Z,12.15
2018-04-26T09:11:32.118Z,11.91
2018-04-26T09:13:57.862Z,11.99
2018-04-26T09:16:23.590Z,11.69
2018-04-26T09:18:49.352Z,12.10
2018-04-26T09:21:15.085Z,12.10
2018-04-26T09:23:40.817Z,11.94
2018-04-26T09:26:06.556Z,12.07
2018-04-26T09:28:32.288Z,11.76
2018-04-26T09:30:58.029Z,11.56
2018-04-26T09:33:23.764Z,11.14
2018-04-26T09:35:56.516Z,10.49
2018-04-26T09:38:22.253Z,10.45
2018-04-26T09:40:47.991Z,10.61
2018-04-26T09:43:13.731Z,10.70
2018-04-26T09:45:39.484Z,11.00
2018-04-26T09:48:05.225Z,11.42
2018-04-26T09:50:30.976Z,11.38
2018-04-26T09:52:56.718Z,11.56
2018-04-26T09:55:22.538Z,12.10
2018-04-26T09:57:48.205Z,12.23
2018-04-26T10:03:16.576Z,12.89
2018-04-26T10:05:48.513Z,12.40
2018-04-26T10:08:14.260Z,12.33
2018-04-26T10:10:40.016Z,12.22
2018-04-26T10:13:05.761Z,12.86
2018-04-26T10:15:31.523Z,12.92
2018-04-26T10:17:57.253Z,13.01
2018-04-26T10:20:22.983Z,12.76
2018-04-26T10:22:48.725Z,12.35
2018-04-26T10:25:14.452Z,11.89
2018-04-26T10:27:40.191Z,11.48
2018-04-26T10:30:05.976Z,11.13
2018-04-26T10:32:31.668Z,11.78
2018-04-26T10:34:57.392Z,12.29
2018-04-26T10:37:23.129Z,12.78
2018-04-26T10:39:48.856Z,13.25
2018-04-26T10:42:14.606Z,13.55
2018-04-26T10:44:41.305Z,13.40
2018-04-26T10:47:07.065Z,13.33
2018-04-26T10:49:32.792Z,13.24
2018-04-26T10:51:58.537Z,12.78
2018-04-26T10:54:24.280Z,13.48
2018-04-26T10:56:50.020Z,14.17
2018-04-26T10:59:15.740Z,13.90
2018-04-26T11:01:41.473Z,13.91
2018-04-26T11:04:07.200Z,13.47
2018-04-26T11:06:32.940Z,13.37
2018-04-26T11:08:58.654Z,13.10
2018-04-26T11:11:24.399Z,13.26
2018-04-26T11:13:50.125Z,13.43
2018-04-26T11:16:15.898Z,13.46
2018-04-26T11:18:41.626Z,13.57
2018-04-26T11:21:07.389Z,13.27
2018-04-26T11:23:33.116Z,13.62
2018-04-26T11:25:58.860Z,13.85
2018-04-26T11:28:24.589Z,13.13
2018-04-26T11:30:50.328Z,12.52
2018-04-26T11:33:16.065Z,12.15
2018-04-26T11:35:41.804Z,12.08
2018-04-26T11:38:07.542Z,12.19
2018-04-26T11:40:33.288Z,12.40
2018-04-26T11:42:59.025Z,13.36
2018-04-26T11:45:24.757Z,13.48
2018-04-26T11:47:50.493Z,13.42
2018-04-26T11:50:16.233Z,13.60
2018-04-26T11:52:41.967Z,13.48
2018-04-26T11:55:07.705Z,13.85
2018-04-26T11:57:33.446Z,14.50
2018-04-26T11:59:59.192Z,13.96
2018-04-26T12:02:24.965Z,14.27
2018-04-26T12:04:50.672Z,13.44
2018-04-26T12:07:16.429Z,13.56
2018-04-26T12:09:42.176Z,12.43
2018-04-26T12:12:07.920Z,12.59
2018-04-26T12:14:33.649Z,13.20
2018-04-26T12:16:59.388Z,12.88
2018-04-26T12:19:25.119Z,13.13
2018-04-26T12:21:50.858Z,12.54
2018-04-26T12:24:16.596Z,12.31
2018-04-26T12:26:42.341Z,12.67
2018-04-26T12:29:08.069Z,13.36
2018-04-26T12:31:33.797Z,13.94
2018-04-26T12:33:59.537Z,13.79
2018-04-26T12:36:25.282Z,14.67
2018-04-26T12:38:51.041Z,14.09
2018-04-26T12:41:16.768Z,12.78
2018-04-26T12:43:42.516Z,12.27
2018-04-26T12:46:08.246Z,12.64
2018-04-26T12:48:33.985Z,12.94
2018-04-26T12:50:59.717Z,12.86
2018-04-26T12:53:25.460Z,13.17
2018-04-26T12:55:51.208Z,12.94
2018-04-26T12:58:17.025Z,12.58
2018-04-26T13:00:42.692Z,13.21
2018-04-26T13:03:08.454Z,13.12
2018-04-26T13:05:34.196Z,13.33
2018-04-26T13:07:59.973Z,13.17
2018-04-26T13:10:25.695Z,13.00
2018-04-26T13:12:51.457Z,12.47
2018-04-26T13:15:17.206Z,12.41
2018-04-26T13:17:42.956Z,12.26
2018-04-26T13:20:08.706Z,12.20
2018-04-26T13:22:34.455Z,12.63
2018-04-26T13:25:00.194Z,12.56
2018-04-26T13:27:26.027Z,13.22
2018-04-26T13:29:51.788Z,13.73
2018-04-26T13:32:17.465Z,13.62
2018-04-26T13:34:43.222Z,13.77
2018-04-26T13:37:08.976Z,14.03
2018-04-26T13:39:34.740Z,13.82
2018-04-26T13:42:00.473Z,13.25
2018-04-26T13:44:26.220Z,13.33
2018-04-26T13:46:51.964Z,13.60
2018-04-26T13:49:17.730Z,13.55
2018-04-26T13:51:43.490Z,14.12
2018-04-26T13:54:09.327Z,13.81
2018-04-26T13:56:35.073Z,13.01
2018-04-26T13:59:00.838Z,12.85
2018-04-26T14:01:26.568Z,12.80
2018-04-26T14:03:52.315Z,13.04
2018-04-26T14:06:18.096Z,12.66
2018-04-26T14:08:43.853Z,12.96
2018-04-26T14:11:09.596Z,12.82
2018-04-26T14:13:35.348Z,12.65
2018-04-26T14:16:01.097Z,12.71
2018-04-26T14:18:27.265Z,12.49
2018-04-26T14:20:53.017Z,12.28
2018-04-26T14:23:18.805Z,12.21
2018-04-26T14:25:44.533Z,11.90
2018-04-26T14:28:10.281Z,12.02
2018-04-26T14:30:36.033Z,11.90
2018-04-26T14:33:01.772Z,11.77
2018-04-26T14:35:29.136Z,11.63
2018-04-26T14:37:55.050Z,11.62
2018-04-26T14:40:22.224Z,11.45
2018-04-26T14:42:49.194Z,11.99
2018-04-26T14:45:18.214Z,11.91
2018-04-26T14:47:45.772Z,11.81
2018-04-26T14:50:13.257Z,11.77
2018-04-26T14:52:41.586Z,12.09
2018-04-26T14:55:07.428Z,12.15
2018-04-26T14:57:33.514Z,11.86
2018-04-26T15:00:02.781Z,11.91
2018-04-26T15:02:32.898Z,11.72
2018-04-26T15:04:59.107Z,12.09
2018-04-26T15:07:28.221Z,12.07
2018-04-26T15:09:55.179Z,11.58
2018-04-26T15:12:21.484Z,11.55
2018-04-26T15:14:50.177Z,11.54
2018-04-26T15:17:16.927Z,11.66
2018-04-26T15:19:43.462Z,11.57
2018-04-26T15:22:10.133Z,11.58
2018-04-26T15:24:36.521Z,11.77
2018-04-26T15:27:02.319Z,11.76
2018-04-26T15:29:28.521Z,12.28
2018-04-26T15:31:54.932Z,12.28
2018-04-26T15:34:21.223Z,12.26
2018-04-26T15:36:47.453Z,12.35
2018-04-26T15:39:13.758Z,12.02
2018-04-26T15:41:40.217Z,11.78
2018-04-26T15:44:06.048Z,11.63
2018-04-26T15:46:31.907Z,11.67
2018-04-26T15:48:57.652Z,11.71
2018-04-26T15:51:23.469Z,11.68
2018-04-26T15:54:01.742Z,11.90
2018-04-26T15:56:46.200Z,11.75
2018-04-26T15:59:24.401Z,11.77
2018-04-26T16:05:23.328Z,11.73
2018-04-26T16:08:07.882Z,11.58
2018-04-26T16:10:52.417Z,11.79
2018-04-26T16:16:48.124Z,11.47
2018-04-26T16:19:32.625Z,11.26
2018-04-26T16:22:16.841Z,10.98
2018-04-26T16:24:55.112Z,11.11
2018-04-26T16:27:39.429Z,11.09
2018-04-26T16:30:17.595Z,10.83
2018-04-26T16:33:02.219Z,10.71
2018-04-26T16:35:40.398Z,11.10
2018-04-26T16:38:18.578Z,10.92
2018-04-26T16:40:44.353Z,10.70
2018-04-26T16:43:11.245Z,10.83
2018-04-26T16:45:38.020Z,10.82
2018-04-26T16:48:03.794Z,10.77
2018-04-26T16:50:29.557Z,10.82
2018-04-26T16:52:55.329Z,10.85
2018-04-26T16:55:21.126Z,10.76
2018-04-26T16:57:46.872Z,10.89
2018-04-26T17:00:12.614Z,10.71
2018-04-26T17:02:38.368Z,10.72
2018-04-26T17:05:04.108Z,10.57
2018-04-26T17:07:29.833Z,10.37
2018-04-26T17:09:55.568Z,10.33
2018-04-26T17:12:21.300Z,10.28
2018-04-26T17:14:47.037Z,10.34
2018-04-26T17:17:12.783Z,10.34
2018-04-26T17:19:38.534Z,10.39
2018-04-26T17:22:04.277Z,10.28
2018-04-26T17:24:30.024Z,10.29
2018-04-26T17:26:55.757Z,10.44
2018-04-26T17:29:21.497Z,10.29
2018-04-26T17:31:47.238Z,10.15
2018-04-26T17:34:12.968Z,10.10
2018-04-26T17:36:38.688Z,10.03
2018-04-26T17:39:04.437Z,9.99
2018-04-26T17:41:30.189Z,9.84
2018-04-26T17:43:55.919Z,9.75
2018-04-26T17:46:21.677Z,9.73
2018-04-26T17:48:47.417Z,9.78
2018-04-26T17:51:13.177Z,9.77
2018-04-26T17:53:38.909Z,9.60
2018-04-26T17:56:04.662Z,9.55
2018-04-26T17:58:30.424Z,9.59
2018-04-26T18:00:56.564Z,9.55
2018-04-26T18:03:22.336Z,9.47
2018-04-26T18:05:48.126Z,9.43
2018-04-26T18:08:13.864Z,9.36
2018-04-26T18:10:39.605Z,9.29
2018-04-26T18:13:05.345Z,9.30
2018-04-26T18:15:31.094Z,9.26
2018-04-26T18:17:56.833Z,9.15
2018-04-26T18:20:22.583Z,9.17
2018-04-26T18:22:48.320Z,9.10
2018-04-26T18:25:14.125Z,9.03
2018-04-26T18:27:39.820Z,9.04
2018-04-26T18:30:05.577Z,8.96
2018-04-26T18:32:31.317Z,8.92
2018-04-26T18:34:57.048Z,8.84
2018-04-26T18:37:22.792Z,8.77
2018-04-26T18:39:48.525Z,8.71
2018-04-26T18:42:14.277Z,8.76
2018-04-26T18:44:40.009Z,8.65
2018-04-26T18:47:05.769Z,8.71
2018-04-26T18:49:31.523Z,8.65
2018-04-26T18:51:57.268Z,8.66
2018-04-26T18:54:23.017Z,8.59
2018-04-26T18:56:48.760Z,8.56
2018-04-26T18:59:14.532Z,8.63
2018-04-26T19:01:40.285Z,8.62
2018-04-26T19:04:06.019Z,8.55
2018-04-26T19:06:31.796Z,8.49
2018-04-26T19:08:57.548Z,8.44
2018-04-26T19:11:23.278Z,8.37
2018-04-26T19:13:49.036Z,8.28
2018-04-26T19:16:14.764Z,8.30
2018-04-26T19:18:40.510Z,8.17
2018-04-26T19:21:06.292Z,8.23
2018-04-26T19:23:32.008Z,8.15
2018-04-26T19:25:57.737Z,8.34
2018-04-26T19:28:23.488Z,8.22
2018-04-26T19:30:49.230Z,8.08
2018-04-26T19:33:14.981Z,8.11
2018-04-26T19:35:40.712Z,8.05
2018-04-26T19:38:06.452Z,8.05
2018-04-26T19:40:32.187Z,8.05
2018-04-26T19:42:57.945Z,7.97
2018-04-26T19:45:23.677Z,7.99
2018-04-26T19:47:49.425Z,7.81
2018-04-26T19:50:15.169Z,7.76
2018-04-26T19:52:40.904Z,7.82
2018-04-26T19:55:06.657Z,7.74
2018-04-26T19:57:32.393Z,7.75
2018-04-26T19:59:58.194Z,7.71
2018-04-26T20:02:23.924Z,7.74
2018-04-26T20:04:49.688Z,7.71
2018-04-26T20:07:15.449Z,7.60
2018-04-26T20:09:41.209Z,7.63
2018-04-26T20:12:06.950Z,7.75
2018-04-26T20:14:32.698Z,7.76
2018-04-26T20:16:58.446Z,7.77
2018-04-26T20:19:24.200Z,7.82
2018-04-26T20:21:49.936Z,7.79
2018-04-26T20:24:15.684Z,7.77
2018-04-26T20:26:41.441Z,7.67
2018-04-26T20:29:07.185Z,7.60
2018-04-26T20:31:32.941Z,7.55
2018-04-26T20:33:58.688Z,7.64
2018-04-26T20:36:24.443Z,7.53
2018-04-26T20:38:50.196Z,7.53
2018-04-26T20:41:15.944Z,7.54
2018-04-26T20:43:41.689Z,7.48
2018-04-26T20:46:07.453Z,7.39
2018-04-26T20:48:40.252Z,7.42
2018-04-26T20:51:06.001Z,7.36
2018-04-26T20:53:31.740Z,7.34
2018-04-26T20:55:57.527Z,7.34
2018-04-26T20:58:23.276Z,7.35
2018-04-26T21:00:49.017Z,7.38
2018-04-26T21:03:14.749Z,7.34
2018-04-26T21:05:40.491Z,7.38
2018-04-26T21:08:06.222Z,7.32
2018-04-26T21:10:31.976Z,7.23
2018-04-26T21:13:04.680Z,7.23
2018-04-26T21:15:30.424Z,7.42
2018-04-26T21:17:56.165Z,7.40
2018-04-26T21:20:21.913Z,7.41
2018-04-26T21:22:47.661Z,7.48
2018-04-26T21:25:13.399Z,7.48
2018-04-26T21:27:39.141Z,7.46
2018-04-26T21:30:04.880Z,7.45
2018-04-26T21:32:30.617Z,7.47
2018-04-26T21:34:56.352Z,7.38
2018-04-26T21:37:22.102Z,7.35
2018-04-26T21:39:48.090Z,7.34
2018-04-26T21:42:13.877Z,7.26
2018-04-26T21:44:39.625Z,7.26
2018-04-26T21:47:05.356Z,7.24
2018-04-26T21:49:31.029Z,7.24
2018-04-26T21:52:02.864Z,7.27
2018-04-26T21:54:34.795Z,7.20
2018-04-26T21:57:06.621Z,7.17
2018-04-26T21:59:38.913Z,7.14
2018-04-26T22:02:10.788Z,7.20
2018-04-26T22:04:36.590Z,7.21
2018-04-26T22:07:02.380Z,7.23
2018-04-26T22:09:28.156Z,7.23
2018-04-26T22:11:53.910Z,7.23
2018-04-26T22:14:19.657Z,7.21
2018-04-26T22:16:45.428Z,7.27
2018-04-26T22:19:11.177Z,7.26
2018-04-26T22:21:36.918Z,7.26
2018-04-26T22:24:02.714Z,7.28
2018-04-26T22:26:28.473Z,7.35
2018-04-26T22:28:54.220Z,7.35
2018-04-26T22:31:20.025Z,7.39
2018-04-26T22:33:45.769Z,7.42
2018-04-26T22:36:11.521Z,7.55
2018-04-26T22:38:37.278Z,7.51
2018-04-26T22:41:03.020Z,7.49
2018-04-26T22:43:28.809Z,7.45
2018-04-26T22:45:54.576Z,7.52
2018-04-26T22:48:20.358Z,7.46
2018-04-26T22:50:46.101Z,7.52
2018-04-26T22:53:11.852Z,7.53
2018-04-26T22:55:37.601Z,7.55
2018-04-26T22:58:03.329Z,7.58
2018-04-26T23:00:29.061Z,7.61
2018-04-26T23:02:54.804Z,7.62
2018-04-26T23:05:20.600Z,7.62
2018-04-26T23:07:46.333Z,7.64
2018-04-26T23:10:12.145Z,7.62
2018-04-26T23:12:37.905Z,7.61
2018-04-26T23:15:03.691Z,7.64
2018-04-26T23:17:29.420Z,7.74
2018-04-26T23:19:55.168Z,7.72
2018-04-26T23:22:21.146Z,7.73
2018-04-26T23:24:46.954Z,7.72
2018-04-26T23:27:12.693Z,7.64
2018-04-26T23:29:38.445Z,7.63
2018-04-26T23:32:04.225Z,7.59
2018-04-26T23:34:30.008Z,7.59
2018-04-26T23:36:55.740Z,7.50
2018-04-26T23:39:21.481Z,7.60
2018-04-26T23:41:47.215Z,7.67
2018-04-26T23:44:12.969Z,7.65
2018-04-26T23:46:38.717Z,7.66
2018-04-26T23:49:04.465Z,7.62
2018-04-26T23:51:30.216Z,7.56
2018-04-26T23:53:55.980Z,7.51
2018-04-26T23:56:21.761Z,7.49
2018-04-26T23:58:47.516Z,7.44
